Time;durP1;ratioP1;P1;durP2;ratioP2;P2;SDS_P1;SDS_P2;PMS_P1;PMS_P2;Temp;Humidity;BMP_temperature;BMP_pressure;BME280_temperature;BME280_humidity;BME280_pressure;Samples;Min_cycle;Max_cycle;Signal;HPM_P1;HPM_P2
2022/10/07 00:01:57;;;;;;;10.95;2.88;;;10.60;99.90;;;;;;4935090;28;20379;-57
2022/10/07 00:04:23;;;;;;;11.25;3.03;;;10.60;99.90;;;;;;4954007;28;20159;-58
2022/10/07 00:06:49;;;;;;;14.77;2.70;;;10.60;99.90;;;;;;4950904;28;20093;-57
2022/10/07 00:09:15;;;;;;;15.13;3.05;;;10.60;99.90;;;;;;4952100;28;20116;-58
2022/10/07 00:11:41;;;;;;;11.63;2.75;;;10.60;99.90;;;;;;4953433;28;20046;-58
2022/10/07 00:14:07;;;;;;;12.90;2.55;;;10.50;99.90;;;;;;4954631;28;20086;-57
2022/10/07 00:16:36;;;;;;;13.23;2.85;;;10.50;99.90;;;;;;4958303;28;20042;-58
2022/10/07 00:19:06;;;;;;;16.58;2.75;;;10.50;99.90;;;;;;4953498;28;20129;-57
2022/10/07 00:21:34;;;;;;;16.70;2.40;;;10.50;99.90;;;;;;4951210;28;20046;-58
2022/10/07 00:24:00;;;;;;;15.70;2.85;;;10.50;99.90;;;;;;4940140;28;20133;-57
2022/10/07 00:26:29;;;;;;;13.25;3.10;;;10.50;99.90;;;;;;4935086;28;20520;-57
2022/10/07 00:28:55;;;;;;;14.63;2.83;;;10.50;99.90;;;;;;4935454;28;20517;-57
2022/10/07 00:31:24;;;;;;;15.48;2.85;;;10.50;99.90;;;;;;4935716;28;20082;-58
2022/10/07 00:33:50;;;;;;;9.15;2.70;;;10.50;99.90;;;;;;4952225;28;20035;-58
2022/10/07 00:36:25;;;;;;;11.07;3.05;;;10.50;99.90;;;;;;4952127;28;20057;-58
2022/10/07 00:38:56;;;;;;;16.25;2.70;;;10.50;99.90;;;;;;4951429;28;20512;-58
2022/10/07 00:41:35;;;;;;;14.23;2.50;;;10.50;99.90;;;;;;4950802;28;20090;-58
2022/10/07 00:44:40;;;;;;;13.82;2.58;;;10.50;99.90;;;;;;4958361;28;20061;-58
2022/10/07 00:47:29;;;;;;;13.63;2.63;;;10.50;99.90;;;;;;4946047;28;20105;-58
2022/10/07 00:50:14;;;;;;;12.20;2.45;;;10.50;99.90;;;;;;4952831;28;20165;-57
2022/10/07 00:52:54;;;;;;;13.18;2.95;;;10.50;99.90;;;;;;4954259;28;20401;-57
2022/10/07 00:55:25;;;;;;;14.60;3.25;;;10.50;99.90;;;;;;4947365;28;20536;-58
2022/10/07 00:57:54;;;;;;;15.05;2.85;;;10.50;99.90;;;;;;4928454;28;20077;-58
2022/10/07 01:00:23;;;;;;;11.60;2.60;;;10.40;99.90;;;;;;4953097;28;20141;-57
2022/10/07 01:02:49;;;;;;;10.07;2.42;;;10.40;99.90;;;;;;4950881;28;20133;-57
2022/10/07 01:05:16;;;;;;;14.13;3.15;;;10.40;99.90;;;;;;4944649;28;20051;-56
2022/10/07 01:07:44;;;;;;;12.85;2.97;;;10.40;99.90;;;;;;4949001;28;20058;-57
2022/10/07 01:10:12;;;;;;;14.93;3.20;;;10.30;99.90;;;;;;4950800;28;20050;-57
2022/10/07 01:12:45;;;;;;;10.52;2.55;;;10.30;99.90;;;;;;4950942;28;20131;-58
2022/10/07 01:15:33;;;;;;;17.42;3.00;;;10.30;99.90;;;;;;4951724;28;20473;-57
2022/10/07 01:18:00;;;;;;;8.48;3.05;;;10.30;99.90;;;;;;4951289;28;20055;-58
2022/10/07 01:20:39;;;;;;;16.08;3.05;;;10.30;99.90;;;;;;4952595;28;20059;-58
2022/10/07 01:23:32;;;;;;;10.15;3.20;;;10.20;99.90;;;;;;4951541;28;20104;-57
2022/10/07 01:26:21;;;;;;;10.52;2.97;;;10.20;99.90;;;;;;4949618;28;20207;-57
2022/10/07 01:29:02;;;;;;;14.43;2.70;;;10.20;99.90;;;;;;4952152;28;20522;-58
2022/10/07 01:31:37;;;;;;;10.63;3.22;;;10.20;99.90;;;;;;4952307;28;20030;-58
2022/10/07 01:34:06;;;;;;;14.35;2.97;;;10.20;99.90;;;;;;4931886;28;20043;-56
2022/10/07 01:36:35;;;;;;;12.88;3.13;;;10.20;99.90;;;;;;4945919;28;20734;-58
2022/10/07 01:39:06;;;;;;;14.02;3.15;;;10.20;99.90;;;;;;4949658;28;20717;-58
2022/10/07 01:41:36;;;;;;;15.52;3.38;;;10.20;99.90;;;;;;4951756;28;20059;-58
2022/10/07 01:44:02;;;;;;;10.32;2.95;;;10.20;99.90;;;;;;4951425;28;20045;-58
2022/10/07 01:46:29;;;;;;;10.35;2.85;;;10.20;99.90;;;;;;4951234;28;20073;-58
2022/10/07 01:48:55;;;;;;;13.48;4.00;;;10.10;99.90;;;;;;4952095;28;20055;-58
2022/10/07 01:51:27;;;;;;;19.58;3.70;;;10.10;99.90;;;;;;4948667;28;20278;-57
2022/10/07 01:54:02;;;;;;;9.52;2.83;;;10.10;99.90;;;;;;4947464;28;20490;-57
2022/10/07 01:56:59;;;;;;;16.83;3.00;;;10.10;99.90;;;;;;4950466;28;20045;-57
2022/10/07 01:59:37;;;;;;;15.77;3.22;;;10.10;99.90;;;;;;4950535;28;20049;-57
2022/10/07 02:02:11;;;;;;;12.73;2.72;;;10.10;99.90;;;;;;4948434;28;20054;-58
2022/10/07 02:04:58;;;;;;;10.75;3.00;;;10.00;99.90;;;;;;4952271;28;20398;-58
2022/10/07 02:07:31;;;;;;;11.00;2.80;;;10.00;99.90;;;;;;4950529;28;20098;-56
2022/10/07 02:10:23;;;;;;;13.77;2.97;;;9.90;99.90;;;;;;4951804;28;20053;-58
2022/10/07 02:12:56;;;;;;;11.00;3.28;;;9.90;99.90;;;;;;4949054;28;20118;-58
2022/10/07 02:15:58;;;;;;;14.75;2.97;;;9.90;99.90;;;;;;4949877;28;20047;-58
2022/10/07 02:18:26;;;;;;;9.40;3.13;;;9.90;99.90;;;;;;4895915;28;20048;-58
2022/10/07 02:20:54;;;;;;;10.13;3.10;;;9.80;99.90;;;;;;4949429;28;20054;-57
2022/10/07 02:23:22;;;;;;;12.75;3.20;;;9.80;99.90;;;;;;4949437;28;20046;-58
2022/10/07 02:25:51;;;;;;;13.25;3.08;;;9.80;99.90;;;;;;4958844;28;20039;-57
2022/10/07 02:28:21;;;;;;;12.15;3.42;;;9.80;99.90;;;;;;4962623;28;20493;-57
2022/10/07 02:30:52;;;;;;;15.82;4.20;;;9.80;99.90;;;;;;4944278;28;20078;-57
2022/10/07 02:33:19;;;;;;;12.68;3.55;;;9.80;99.90;;;;;;4952540;28;20058;-57
2022/10/07 02:36:24;;;;;;;13.98;3.88;;;9.70;99.90;;;;;;4955461;28;20051;-57
2022/10/07 02:38:50;;;;;;;12.55;3.40;;;9.70;99.90;;;;;;4875881;29;20056;-58
2022/10/07 02:41:31;;;;;;;14.00;3.53;;;9.70;99.90;;;;;;4941356;28;20062;-58
2022/10/07 02:44:07;;;;;;;11.90;3.35;;;9.70;99.90;;;;;;4954961;28;20066;-57
2022/10/07 02:46:40;;;;;;;13.80;3.17;;;9.70;99.90;;;;;;4953205;28;20496;-58
2022/10/07 02:49:08;;;;;;;;;;;9.70;99.90;;;;;;4951444;28;20456;-58
2022/10/07 02:51:45;;;;;;;13.02;3.47;;;9.70;99.90;;;;;;4949413;28;19926;-57
2022/10/07 02:54:15;;;;;;;16.73;4.35;;;9.70;99.90;;;;;;4953151;28;20047;-58
2022/10/07 02:56:42;;;;;;;17.80;3.78;;;9.70;99.90;;;;;;4954976;28;20043;-58
2022/10/07 02:59:11;;;;;;;16.45;3.53;;;9.70;99.90;;;;;;4953164;28;20495;-58
2022/10/07 03:01:44;;;;;;;14.35;3.40;;;9.60;99.90;;;;;;4951491;28;20153;-58
2022/10/07 03:04:10;;;;;;;15.82;3.35;;;9.60;99.90;;;;;;4934297;28;20382;-58
2022/10/07 03:06:36;;;;;;;14.15;3.45;;;9.60;99.90;;;;;;4955179;28;20065;-56
2022/10/07 03:09:03;;;;;;;15.95;3.70;;;9.60;99.90;;;;;;4948493;28;20050;-58
2022/10/07 03:11:29;;;;;;;20.80;4.30;;;9.50;99.90;;;;;;4951768;28;20485;-57
2022/10/07 03:13:55;;;;;;;12.60;3.60;;;9.50;99.90;;;;;;4952768;28;20117;-57
2022/10/07 03:16:20;;;;;;;9.70;3.55;;;9.50;99.90;;;;;;4950387;28;20046;-58
2022/10/07 03:18:46;;;;;;;13.35;3.67;;;9.40;99.90;;;;;;4953576;28;20054;-58
2022/10/07 03:21:12;;;;;;;11.75;3.83;;;9.40;99.90;;;;;;4952051;28;20053;-58
2022/10/07 03:23:38;;;;;;;16.38;3.60;;;9.40;99.90;;;;;;4954453;28;20086;-56
2022/10/07 03:26:04;;;;;;;15.63;4.28;;;9.30;99.90;;;;;;4953233;28;20425;-58
2022/10/07 03:28:34;;;;;;;19.75;4.10;;;9.30;99.90;;;;;;4947496;28;20310;-57
2022/10/07 03:31:04;;;;;;;17.88;3.90;;;9.30;99.90;;;;;;4956968;28;20407;-58
2022/10/07 03:33:30;;;;;;;16.08;4.00;;;9.30;99.90;;;;;;4953278;28;20137;-58
2022/10/07 03:35:56;;;;;;;13.00;3.80;;;9.20;99.90;;;;;;4953148;28;21680;-57
2022/10/07 03:38:21;;;;;;;15.90;3.95;;;9.20;99.90;;;;;;4954451;28;20693;-57
2022/10/07 03:40:48;;;;;;;18.98;3.92;;;9.20;99.90;;;;;;4952520;28;20090;-58
2022/10/07 03:43:14;;;;;;;20.42;4.88;;;9.20;99.90;;;;;;4951125;28;20401;-58
2022/10/07 03:45:50;;;;;;;15.27;3.78;;;9.20;99.90;;;;;;4952490;28;20042;-57
2022/10/07 03:48:16;;;;;;;20.20;4.07;;;9.20;99.90;;;;;;4954173;28;20051;-57
2022/10/07 03:50:48;;;;;;;17.75;4.25;;;9.20;99.90;;;;;;4960098;28;20039;-56
2022/10/07 03:53:14;;;;;;;14.30;4.13;;;9.10;99.90;;;;;;4964889;28;20039;-57
2022/10/07 03:55:39;;;;;;;15.23;3.95;;;9.10;99.90;;;;;;4961552;28;20105;-57
2022/10/07 03:58:05;;;;;;;12.15;3.72;;;9.10;99.90;;;;;;4958781;28;20058;-56
2022/10/07 04:00:31;;;;;;;15.20;3.83;;;9.10;99.90;;;;;;4958429;28;20201;-58
2022/10/07 04:02:57;;;;;;;14.05;4.07;;;9.10;99.90;;;;;;4945811;28;20054;-58
2022/10/07 04:05:22;;;;;;;17.45;4.18;;;9.00;99.90;;;;;;4954630;28;20042;-57
2022/10/07 04:07:49;;;;;;;17.85;3.80;;;9.10;99.90;;;;;;4951977;28;20062;-58
2022/10/07 04:10:17;;;;;;;11.90;4.35;;;9.00;99.90;;;;;;4951218;28;20069;-57
2022/10/07 04:12:44;;;;;;;15.88;4.50;;;9.00;99.90;;;;;;4929060;28;20038;-57
2022/10/07 04:15:13;;;;;;;15.40;4.40;;;9.00;99.90;;;;;;4952349;28;20053;-57
2022/10/07 04:17:40;;;;;;;18.15;4.60;;;9.00;99.90;;;;;;4951361;28;20149;-58
2022/10/07 04:20:06;;;;;;;11.63;4.28;;;9.00;99.90;;;;;;4953036;28;20113;-58
2022/10/07 04:22:32;;;;;;;19.52;4.22;;;9.00;99.90;;;;;;4951939;28;20054;-58
2022/10/07 04:27:42;;;;;;;18.83;4.20;;;9.00;99.90;;;;;;4946582;28;20516;-56
2022/10/07 04:30:09;;;;;;;16.15;4.70;;;9.00;99.90;;;;;;4943746;28;20038;-57
2022/10/07 04:32:35;;;;;;;13.32;4.15;;;8.90;99.90;;;;;;4950763;28;20184;-58
2022/10/07 04:35:02;;;;;;;12.80;3.95;;;8.90;99.90;;;;;;4951105;28;20055;-58
2022/10/07 04:37:28;;;;;;;18.40;4.40;;;8.90;99.90;;;;;;4946297;28;20125;-57
2022/10/07 04:39:55;;;;;;;22.85;5.05;;;8.90;99.90;;;;;;4950856;28;20157;-58
2022/10/07 04:45:07;;;;;;;22.85;5.35;;;9.00;99.90;;;;;;4945593;28;20129;-58
2022/10/07 04:47:34;;;;;;;17.48;4.78;;;9.00;99.90;;;;;;4949075;28;20062;-57
2022/10/07 04:50:01;;;;;;;19.55;4.95;;;9.00;99.90;;;;;;4952479;28;20584;-57
2022/10/07 04:52:26;;;;;;;18.98;5.10;;;9.00;99.90;;;;;;4950709;28;20515;-56
2022/10/07 04:54:53;;;;;;;15.45;4.90;;;9.00;99.90;;;;;;4935774;28;20057;-57
2022/10/07 04:57:19;;;;;;;13.38;4.85;;;9.00;99.90;;;;;;4945780;28;20046;-57
2022/10/07 04:59:45;;;;;;;23.85;4.68;;;9.00;99.90;;;;;;4952666;28;20134;-58
2022/10/07 05:02:11;;;;;;;19.75;4.82;;;9.00;99.90;;;;;;4951399;28;20500;-58
2022/10/07 05:04:37;;;;;;;22.83;4.68;;;9.00;99.90;;;;;;4947257;28;20046;-57
2022/10/07 05:07:03;;;;;;;24.75;5.50;;;9.10;99.90;;;;;;4947700;28;20066;-56
2022/10/07 05:09:28;;;;;;;16.45;4.70;;;9.00;99.90;;;;;;4930100;28;20069;-58
2022/10/07 05:11:54;;;;;;;22.40;4.97;;;9.10;99.90;;;;;;4937123;28;20042;-56
2022/10/07 05:14:21;;;;;;;23.13;4.97;;;9.10;99.90;;;;;;4949370;28;20046;-58
2022/10/07 05:16:48;;;;;;;21.17;4.65;;;9.10;99.90;;;;;;4945422;28;20948;-57
2022/10/07 05:19:14;;;;;;;21.88;4.90;;;9.10;99.90;;;;;;4945917;28;20053;-58
2022/10/07 05:21:40;;;;;;;22.40;5.28;;;9.10;99.90;;;;;;4928614;28;20046;-58
2022/10/07 05:24:07;;;;;;;19.40;4.70;;;9.10;99.90;;;;;;4931405;28;20156;-57
2022/10/07 05:26:32;;;;;;;21.55;5.72;;;9.20;99.90;;;;;;4946534;28;20731;-57
2022/10/07 05:28:59;;;;;;;28.98;5.07;;;9.20;99.90;;;;;;4943248;28;20501;-57
2022/10/07 05:31:26;;;;;;;19.25;5.00;;;9.20;99.90;;;;;;4943632;28;20065;-57
2022/10/07 05:33:52;;;;;;;18.08;5.35;;;9.20;99.90;;;;;;4932605;28;20081;-57
2022/10/07 05:36:21;;;;;;;27.02;6.28;;;9.30;99.90;;;;;;4948760;28;20155;-58
2022/10/07 05:38:47;;;;;;;20.30;5.88;;;9.30;99.90;;;;;;4946248;28;20789;-57
2022/10/07 05:41:12;;;;;;;18.38;4.53;;;9.30;99.90;;;;;;4930230;28;20128;-58
2022/10/07 05:43:41;;;;;;;22.70;5.32;;;9.30;99.90;;;;;;4925845;28;20081;-58
2022/10/07 05:46:11;;;;;;;24.63;5.40;;;9.30;99.90;;;;;;4926904;28;20050;-57
2022/10/07 05:48:37;;;;;;;25.35;5.63;;;9.40;99.90;;;;;;4946678;28;20667;-58
2022/10/07 05:51:03;;;;;;;27.10;5.85;;;9.40;99.90;;;;;;4938901;28;20126;-58
2022/10/07 05:53:30;;;;;;;15.85;5.63;;;9.30;99.90;;;;;;4949658;28;20085;-57
2022/10/07 05:55:56;;;;;;;29.45;6.50;;;9.40;99.90;;;;;;4940639;28;20042;-58
2022/10/07 05:58:22;;;;;;;24.15;5.22;;;9.40;99.90;;;;;;4946938;28;20051;-58
2022/10/07 06:00:49;;;;;;;20.55;5.85;;;9.40;99.90;;;;;;4941185;28;20501;-58
2022/10/07 06:03:15;;;;;;;22.42;5.18;;;9.50;99.90;;;;;;4947326;28;20058;-57
2022/10/07 06:05:40;;;;;;;18.00;5.47;;;9.50;99.90;;;;;;4947368;28;20051;-58
2022/10/07 06:08:06;;;;;;;24.98;5.68;;;9.50;99.90;;;;;;4941320;28;20062;-58
2022/10/07 06:13:19;;;;;;;20.38;6.07;;;9.60;99.90;;;;;;4945038;28;20141;-58
2022/10/07 06:15:45;;;;;;;25.58;5.65;;;9.60;99.90;;;;;;4951672;28;20043;-57
2022/10/07 06:18:11;;;;;;;23.90;6.03;;;9.70;99.90;;;;;;4952129;28;20681;-58
2022/10/07 06:20:36;;;;;;;24.30;5.90;;;9.70;99.90;;;;;;4952113;28;20060;-58
2022/10/07 06:23:02;;;;;;;17.83;5.57;;;9.70;99.90;;;;;;4951316;28;20069;-57
2022/10/07 06:25:28;;;;;;;24.02;6.07;;;9.70;99.90;;;;;;4950991;28;20153;-58
2022/10/07 06:27:56;;;;;;;21.30;5.88;;;9.80;99.90;;;;;;4956999;28;20129;-58
2022/10/07 06:30:21;;;;;;;21.42;5.38;;;9.80;99.90;;;;;;4958855;28;20133;-57
2022/10/07 06:32:47;;;;;;;17.67;5.43;;;9.90;99.90;;;;;;4950562;28;20098;-58
2022/10/07 06:35:13;;;;;;;19.63;5.32;;;9.90;99.90;;;;;;4951824;28;20053;-57
2022/10/07 06:37:39;;;;;;;20.70;6.00;;;9.90;99.90;;;;;;4933916;28;20047;-57
2022/10/07 06:40:05;;;;;;;23.52;6.07;;;10.00;99.90;;;;;;4950565;28;20051;-57
2022/10/07 06:42:31;;;;;;;16.77;5.53;;;10.00;99.90;;;;;;4952656;28;20420;-58
2022/10/07 06:44:57;;;;;;;25.95;5.85;;;10.00;99.90;;;;;;4952692;28;20510;-59
2022/10/07 06:47:23;;;;;;;25.92;7.00;;;10.10;99.90;;;;;;4951433;28;20054;-56
2022/10/07 06:49:48;;;;;;;17.67;5.80;;;10.10;99.90;;;;;;4947369;28;20122;-58
2022/10/07 06:52:14;;;;;;;24.77;6.35;;;10.10;99.90;;;;;;4947072;28;20149;-57
2022/10/07 06:54:41;;;;;;;26.80;5.90;;;10.20;99.90;;;;;;4944950;28;20047;-58
2022/10/07 06:57:07;;;;;;;26.80;6.35;;;10.20;99.90;;;;;;4934822;28;20101;-58
2022/10/07 06:59:32;;;;;;;22.25;5.25;;;10.20;99.90;;;;;;4929956;28;20055;-59
2022/10/07 07:01:58;;;;;;;19.67;5.50;;;10.30;99.90;;;;;;4949445;28;20046;-58
2022/10/07 07:04:24;;;;;;;23.60;6.15;;;10.30;99.90;;;;;;4946750;28;20144;-56
2022/10/07 07:06:50;;;;;;;27.45;6.15;;;10.40;99.90;;;;;;4950037;28;20058;-57
2022/10/07 07:09:16;;;;;;;21.30;5.90;;;10.40;99.90;;;;;;4947881;28;20047;-57
2022/10/07 07:11:44;;;;;;;17.90;6.05;;;10.50;99.90;;;;;;4959580;28;20070;-58
2022/10/07 07:14:11;;;;;;;14.00;5.25;;;10.50;99.90;;;;;;4951520;28;21355;-57
2022/10/07 07:16:38;;;;;;;20.27;5.35;;;10.60;99.90;;;;;;4952491;28;20055;-58
2022/10/07 07:19:07;;;;;;;23.92;5.72;;;10.60;99.90;;;;;;4952993;28;20095;-58
2022/10/07 07:21:34;;;;;;;19.20;5.55;;;10.70;99.90;;;;;;4948271;28;20170;-58
2022/10/07 07:24:01;;;;;;;28.30;6.32;;;10.70;99.90;;;;;;4933929;28;20050;-58
2022/10/07 07:26:28;;;;;;;24.52;6.18;;;10.80;99.90;;;;;;4953221;28;20927;-58
2022/10/07 07:29:01;;;;;;;19.70;5.45;;;10.80;99.90;;;;;;4953717;28;20055;-59
2022/10/07 07:31:30;;;;;;;22.63;5.85;;;10.90;99.90;;;;;;4951370;28;20520;-58
2022/10/07 07:34:00;;;;;;;24.05;5.93;;;10.90;99.90;;;;;;4952323;28;20047;-57
2022/10/07 07:36:28;;;;;;;14.73;4.88;;;11.00;99.90;;;;;;4950998;28;20050;-59
2022/10/07 07:38:59;;;;;;;18.08;5.13;;;11.00;99.90;;;;;;4953216;28;20051;-56
2022/10/07 07:41:29;;;;;;;20.90;5.85;;;11.00;99.90;;;;;;4951477;28;20631;-58
2022/10/07 07:43:57;;;;;;;22.30;5.78;;;11.10;99.90;;;;;;4953607;28;20243;-58
2022/10/07 07:46:26;;;;;;;19.58;5.28;;;11.20;99.90;;;;;;4943500;28;20051;-58
2022/10/07 07:48:53;;;;;;;20.80;5.20;;;11.20;99.90;;;;;;4941475;28;20047;-55
2022/10/07 07:51:19;;;;;;;20.15;5.80;;;11.30;99.90;;;;;;4952879;28;20051;-58
2022/10/07 07:53:46;;;;;;;20.98;5.25;;;11.30;99.90;;;;;;4952168;28;20485;-58
2022/10/07 07:56:12;;;;;;;19.70;4.70;;;11.40;99.90;;;;;;4931499;28;20109;-58
2022/10/07 07:58:38;;;;;;;24.83;5.35;;;11.50;99.90;;;;;;4951649;28;20055;-58
2022/10/07 08:01:07;;;;;;;24.20;6.45;;;11.60;99.90;;;;;;4933267;28;20142;-59
2022/10/07 08:03:38;;;;;;;25.88;6.05;;;11.60;99.90;;;;;;4949580;28;20100;-58
2022/10/07 08:06:08;;;;;;;24.60;5.80;;;11.70;99.90;;;;;;4950724;28;20750;-58
2022/10/07 08:08:34;;;;;;;21.95;5.13;;;11.80;99.90;;;;;;4949878;28;20074;-56
2022/10/07 08:11:10;;;;;;;25.33;6.40;;;11.90;99.90;;;;;;4951024;28;20046;-58
2022/10/07 08:13:40;;;;;;;20.38;7.70;;;12.00;99.90;;;;;;4951318;28;20093;-58
2022/10/07 08:16:07;;;;;;;20.50;6.65;;;12.20;99.90;;;;;;4936590;28;20039;-58
2022/10/07 08:18:33;;;;;;;23.98;7.35;;;12.30;99.90;;;;;;4954076;28;20795;-59
2022/10/07 08:21:01;;;;;;;21.65;6.45;;;12.40;99.90;;;;;;4951039;28;20054;-58
2022/10/07 08:23:30;;;;;;;18.73;5.90;;;12.50;99.90;;;;;;4946635;28;20306;-58
2022/10/07 08:25:58;;;;;;;17.60;5.15;;;12.60;99.90;;;;;;4953235;28;20369;-58
2022/10/07 08:28:26;;;;;;;22.10;5.40;;;12.70;99.90;;;;;;4954963;28;20540;-58
2022/10/07 08:30:52;;;;;;;15.40;4.72;;;12.80;99.90;;;;;;4930862;28;20084;-58
2022/10/07 08:33:20;;;;;;;25.20;5.95;;;12.90;99.90;;;;;;4945909;28;20047;-58
2022/10/07 08:35:49;;;;;;;21.58;5.72;;;12.90;99.90;;;;;;4958769;28;20050;-58
2022/10/07 08:38:15;;;;;;;22.27;7.45;;;13.00;99.90;;;;;;4958497;28;20511;-58
2022/10/07 08:40:49;;;;;;;23.83;6.78;;;13.10;99.90;;;;;;4952470;28;20109;-59
2022/10/07 08:43:17;;;;;;;22.67;6.47;;;13.20;99.90;;;;;;4961345;28;20549;-58
2022/10/07 08:45:44;;;;;;;23.73;6.90;;;13.30;99.90;;;;;;4960407;28;20061;-58
2022/10/07 08:48:17;;;;;;;25.88;6.78;;;13.50;99.90;;;;;;4954824;28;20489;-58
2022/10/07 08:50:54;;;;;;;22.23;6.40;;;13.50;99.90;;;;;;4955751;28;20393;-57
2022/10/07 08:53:32;;;;;;;23.05;6.68;;;13.60;99.90;;;;;;4949672;28;20049;-58
2022/10/07 08:56:15;;;;;;;19.33;7.32;;;13.70;99.90;;;;;;4947213;28;20576;-59
2022/10/07 08:58:44;;;;;;;19.85;5.10;;;13.90;99.90;;;;;;4947347;28;20206;-58
2022/10/07 09:01:31;;;;;;;24.25;7.18;;;14.00;99.90;;;;;;4934566;28;20397;-58
2022/10/07 09:04:24;;;;;;;23.00;6.93;;;14.00;99.90;;;;;;4949054;28;20125;-59
2022/10/07 09:06:57;;;;;;;23.23;5.45;;;14.10;99.90;;;;;;4950591;28;20054;-59
2022/10/07 09:09:39;;;;;;;23.40;6.45;;;14.30;99.90;;;;;;4949774;28;20493;-58
2022/10/07 09:12:12;;;;;;;21.35;6.35;;;14.40;99.90;;;;;;4946509;28;20401;-58
2022/10/07 09:14:42;;;;;;;21.20;5.75;;;14.50;99.90;;;;;;4951799;28;20057;-58
2022/10/07 09:17:21;;;;;;;22.17;5.60;;;14.60;99.90;;;;;;4951055;28;21447;-57
2022/10/07 09:19:54;;;;;;;23.70;5.05;;;14.60;99.90;;;;;;4947368;28;20057;-59
2022/10/07 09:22:23;;;;;;;26.42;6.22;;;14.70;99.90;;;;;;4948957;28;20051;-57
2022/10/07 09:25:01;;;;;;;19.27;5.35;;;14.80;99.90;;;;;;4951461;28;20062;-59
2022/10/07 09:27:27;;;;;;;21.85;4.88;;;14.90;99.90;;;;;;4951680;28;20111;-58
2022/10/07 09:29:53;;;;;;;22.23;5.25;;;15.00;99.90;;;;;;4932489;28;20057;-58
2022/10/07 09:32:19;;;;;;;26.85;4.85;;;15.10;99.90;;;;;;4954893;28;20055;-58
2022/10/07 09:34:46;;;;;;;19.38;4.20;;;15.30;99.90;;;;;;4944793;28;20058;-57
2022/10/07 09:37:22;;;;;;;18.25;4.57;;;15.40;99.90;;;;;;4945456;28;20070;-59
2022/10/07 09:39:50;;;;;;;22.00;3.92;;;15.50;99.90;;;;;;4949927;28;20104;-56
2022/10/07 09:42:41;;;;;;;17.27;3.90;;;15.60;99.90;;;;;;4952360;28;20632;-59
2022/10/07 09:45:32;;;;;;;20.35;4.45;;;15.70;99.90;;;;;;4948429;28;20742;-57
2022/10/07 09:48:10;;;;;;;18.08;4.30;;;15.90;99.90;;;;;;4949566;28;20169;-58
2022/10/07 09:50:42;;;;;;;19.25;4.97;;;16.00;99.90;;;;;;4945596;28;21173;-59
2022/10/07 09:53:24;;;;;;;16.88;4.70;;;16.10;99.90;;;;;;4929385;28;20182;-57
2022/10/07 09:55:52;;;;;;;18.43;4.17;;;16.30;99.90;;;;;;4950641;28;20117;-58
2022/10/07 09:58:24;;;;;;;19.33;3.92;;;16.40;99.90;;;;;;4943836;28;20383;-59
2022/10/07 10:00:55;;;;;;;21.27;4.50;;;16.50;99.90;;;;;;4944117;28;20490;-58
2022/10/07 10:03:32;;;;;;;17.25;4.00;;;16.50;99.90;;;;;;4951512;28;20050;-59
2022/10/07 10:06:02;;;;;;;15.77;4.45;;;16.60;99.90;;;;;;4947581;28;20173;-58
2022/10/07 10:08:37;;;;;;;25.98;4.47;;;16.70;99.90;;;;;;4940321;28;20066;-57
2022/10/07 10:11:22;;;;;;;21.83;4.55;;;16.80;99.90;;;;;;4949413;28;20058;-57
2022/10/07 10:13:50;;;;;;;19.45;4.05;;;16.80;99.90;;;;;;4953159;28;20047;-59
2022/10/07 10:16:29;;;;;;;20.67;4.05;;;16.80;99.90;;;;;;4946067;28;20046;-59
2022/10/07 10:19:20;;;;;;;18.15;4.45;;;17.00;99.90;;;;;;4952678;28;20058;-58
2022/10/07 10:21:51;;;;;;;17.88;4.03;;;17.00;99.90;;;;;;4944655;28;20054;-59
2022/10/07 10:26:24;;;;;;;17.88;4.40;;;17.10;99.90;;;;;;4947712;28;20057;-58
2022/10/07 10:27:16;;;;;;;23.70;4.57;;;17.00;99.90;;;;;;4946603;28;20506;-57
2022/10/07 10:30:03;;;;;;;17.98;4.13;;;17.00;99.90;;;;;;4950860;28;20051;-58
2022/10/07 10:32:44;;;;;;;26.00;4.50;;;17.10;99.90;;;;;;4957206;28;20128;-58
2022/10/07 10:35:28;;;;;;;19.10;5.45;;;17.20;99.90;;;;;;4947089;28;20057;-59
2022/10/07 10:38:25;;;;;;;21.38;4.05;;;17.30;99.90;;;;;;4945285;28;20489;-59
2022/10/07 10:41:04;;;;;;;18.73;4.13;;;17.40;99.90;;;;;;4947220;28;20114;-58
2022/10/07 10:43:48;;;;;;;14.15;4.15;;;17.50;99.90;;;;;;4944830;28;20089;-59
2022/10/07 10:46:34;;;;;;;19.67;4.65;;;17.60;99.90;;;;;;4950476;28;20532;-59
2022/10/07 10:49:24;;;;;;;12.05;3.28;;;17.80;99.90;;;;;;4952074;28;20095;-58
2022/10/07 10:55:38;;;;;;;18.33;4.25;;;18.10;99.90;;;;;;5299910;23;20051;-59
2022/10/07 10:58:34;;;;;;;13.93;3.30;;;18.20;99.90;;;;;;4926581;28;20648;-59
2022/10/07 11:01:37;;;;;;;18.05;3.45;;;18.30;99.90;;;;;;4910830;28;21228;-59
2022/10/07 11:04:08;;;;;;;15.02;3.92;;;18.40;99.90;;;;;;4933650;28;20432;-59
2022/10/07 11:06:39;;;;;;;19.17;4.03;;;18.30;99.90;;;;;;4937164;28;20518;-58
2022/10/07 11:09:25;;;;;;;17.85;3.90;;;18.20;99.90;;;;;;4943480;28;20114;-58
2022/10/07 11:11:52;;;;;;;16.40;3.42;;;18.10;99.90;;;;;;4917717;29;20095;-60
2022/10/07 11:14:21;;;;;;;17.67;3.95;;;18.00;99.90;;;;;;4914217;29;20054;-59
2022/10/07 11:17:02;;;;;;;18.95;3.60;;;18.00;99.90;;;;;;4955788;29;20063;-60
2022/10/07 11:19:42;;;;;;;20.50;3.38;;;17.90;99.90;;;;;;4955644;29;20047;-60
2022/10/07 11:22:24;;;;;;;17.98;3.58;;;18.00;99.90;;;;;;4955497;29;20081;-59
2022/10/07 11:24:56;;;;;;;11.40;3.38;;;18.20;99.90;;;;;;4955356;29;20047;-60
2022/10/07 11:27:31;;;;;;;17.13;3.30;;;18.30;99.90;;;;;;4955236;29;20059;-60
2022/10/07 11:30:16;;;;;;;15.07;3.67;;;18.50;99.90;;;;;;4955314;29;20051;-60
2022/10/07 11:33:07;;;;;;;15.40;2.78;;;18.70;99.90;;;;;;4955059;29;20059;-59
2022/10/07 11:35:36;;;;;;;15.00;3.33;;;18.70;99.90;;;;;;4954969;29;20039;-60
2022/10/07 11:38:12;;;;;;;19.73;3.20;;;18.70;99.90;;;;;;4954912;29;20056;-59
2022/10/07 11:41:08;;;;;;;13.77;3.10;;;18.70;99.90;;;;;;4955109;29;20047;-59
2022/10/07 11:43:45;;;;;;;13.73;2.80;;;18.60;99.90;;;;;;4940692;28;20043;-60
2022/10/07 11:46:30;;;;;;;13.55;2.95;;;18.40;99.90;;;;;;4976628;28;20053;-60
2022/10/07 11:49:02;;;;;;;10.95;2.40;;;18.30;99.90;;;;;;4976435;28;20405;-59
2022/10/07 11:51:31;;;;;;;16.70;3.42;;;18.20;99.90;;;;;;4976087;28;20097;-60
2022/10/07 11:54:01;;;;;;;11.93;2.92;;;18.20;99.90;;;;;;4976449;28;20109;-60
2022/10/07 11:56:48;;;;;;;11.27;2.60;;;18.20;99.90;;;;;;4953594;28;20149;-60
2022/10/07 11:59:44;;;;;;;12.48;2.83;;;18.30;99.90;;;;;;4951815;28;20051;-58
2022/10/07 12:02:28;;;;;;;11.05;2.40;;;18.50;99.90;;;;;;4950238;28;20058;-59
2022/10/07 12:04:56;;;;;;;11.93;2.83;;;18.60;99.60;;;;;;4951309;28;20063;-59
2022/10/07 12:07:33;;;;;;;13.13;2.92;;;18.70;99.60;;;;;;4950567;28;20121;-59
2022/10/07 12:10:02;;;;;;;11.93;2.80;;;18.80;99.50;;;;;;4933974;28;20058;-59
2022/10/07 12:12:43;;;;;;;18.08;3.42;;;18.80;99.30;;;;;;4949526;28;20477;-59
2022/10/07 12:15:29;;;;;;;15.80;3.53;;;18.70;99.30;;;;;;4951051;28;20051;-56
2022/10/07 12:18:03;;;;;;;10.73;2.70;;;18.70;99.40;;;;;;4946020;28;20050;-58
2022/10/07 12:20:54;;;;;;;18.95;3.35;;;18.70;99.50;;;;;;4946941;28;20413;-59
2022/10/07 12:23:27;;;;;;;14.70;3.42;;;18.70;99.40;;;;;;4950322;28;20398;-60
2022/10/07 12:26:03;;;;;;;;;;;18.80;99.50;;;;;;4952379;28;22075;-59
2022/10/07 12:28:38;;;;;;;14.80;2.58;;;18.80;99.60;;;;;;4951003;28;19929;-58
2022/10/07 12:31:26;;;;;;;16.48;3.13;;;18.90;99.40;;;;;;4950058;28;20047;-59
2022/10/07 12:34:07;;;;;;;14.85;2.88;;;18.90;99.50;;;;;;4907370;28;20051;-58
2022/10/07 12:36:34;;;;;;;12.77;2.70;;;18.90;99.40;;;;;;4928170;28;20054;-59
2022/10/07 12:38:59;;;;;;;13.45;2.65;;;18.80;99.00;;;;;;4924030;28;20061;-59
2022/10/07 12:41:44;;;;;;;16.65;3.20;;;18.70;99.00;;;;;;4944013;28;20101;-59
2022/10/07 12:44:35;;;;;;;15.30;2.75;;;18.60;99.30;;;;;;4943578;28;20046;-57
2022/10/07 12:47:09;;;;;;;19.55;2.80;;;18.70;99.10;;;;;;4942915;28;20133;-60
2022/10/07 12:49:41;;;;;;;18.05;2.58;;;18.60;98.90;;;;;;4928191;28;20054;-59
2022/10/07 12:52:26;;;;;;;14.93;2.50;;;18.60;99.30;;;;;;4934002;28;20070;-60
2022/10/07 12:55:01;;;;;;;11.75;2.40;;;18.60;99.40;;;;;;4945932;28;20054;-58
2022/10/07 12:57:33;;;;;;;18.00;3.40;;;18.60;99.50;;;;;;4947054;28;20319;-59
2022/10/07 13:00:19;;;;;;;8.35;2.20;;;18.60;99.40;;;;;;4945269;28;20512;-60
2022/10/07 13:03:21;;;;;;;17.77;3.20;;;18.60;99.30;;;;;;4934747;28;20594;-58
2022/10/07 13:05:50;;;;;;;15.55;2.40;;;18.60;99.40;;;;;;4946248;28;20087;-58
2022/10/07 13:08:41;;;;;;;13.18;2.53;;;18.60;99.20;;;;;;4944192;28;20097;-59
2022/10/07 13:11:12;;;;;;;13.35;2.45;;;18.50;99.30;;;;;;4938112;28;20043;-59
2022/10/07 13:14:00;;;;;;;15.20;2.83;;;18.50;99.30;;;;;;4944248;28;20504;-59
2022/10/07 13:16:55;;;;;;;13.60;2.35;;;18.30;99.30;;;;;;4936194;28;20058;-59
2022/10/07 13:19:46;;;;;;;11.93;2.30;;;18.20;99.20;;;;;;4928665;28;20505;-59